Time;durP1;ratioP1;P1;durP2;ratioP2;P2;SDS_P1;SDS_P2;PMS_P1;PMS_P2;Temp;Humidity;BMP_temperature;BMP_pressure;BME280_temperature;BME280_humidity;BME280_pressure;Samples;Min_cycle;Max_cycle;Signal;HPM_P1;HPM_P2
2022/05/04 00:05:17;;;;;;;1999.90;999.90;;;;;;;11.41;66.49;101309.72;15667664;28;20501;-59
2022/05/04 00:12:49;;;;;;;1999.90;999.90;;;;;;;11.19;67.49;101304.25;15639263;28;20047;-59
2022/05/04 00:20:23;;;;;;;1999.90;999.90;;;;;;;11.16;67.15;101316.06;15669372;28;20132;-58
2022/05/04 00:27:55;;;;;;;1999.90;999.90;;;;;;;11.21;66.71;101310.31;15610376;28;20128;-58
2022/05/04 00:35:29;;;;;;;1999.90;999.90;;;;;;;11.11;67.13;101307.81;15662210;28;20044;-58
2022/05/04 00:43:01;;;;;;;1999.90;999.90;;;;;;;10.96;67.78;101293.16;15629239;28;20099;-57
2022/05/04 00:50:35;;;;;;;1999.90;999.90;;;;;;;10.93;67.42;101304.13;15661697;28;20132;-57
2022/05/04 01:05:59;;;;;;;1999.90;999.90;;;;;;;10.73;67.61;101305.47;15656667;28;20052;-60
2022/05/04 01:13:32;;;;;;;1999.90;999.90;;;;;;;10.55;67.89;101303.75;15704425;28;20040;-59
2022/05/04 01:21:06;;;;;;;1999.90;999.90;;;;;;;10.39;67.53;101287.38;15705957;28;20605;-59
2022/05/04 01:28:40;;;;;;;1999.90;999.90;;;;;;;10.27;67.10;101284.34;15687127;28;20041;-58
2022/05/04 01:36:12;;;;;;;1999.90;999.90;;;;;;;10.01;68.53;101297.25;15659661;28;20057;-58
2022/05/04 01:43:46;;;;;;;1999.90;999.90;;;;;;;10.16;67.83;101298.84;15643491;28;20545;-59
2022/05/04 01:51:18;;;;;;;1999.90;999.90;;;;;;;10.01;68.57;101303.66;15657059;28;20052;-59
2022/05/04 01:58:52;;;;;;;1999.90;999.90;;;;;;;10.07;68.72;101309.91;15663943;28;20502;-59
2022/05/04 02:06:25;;;;;;;1999.90;999.90;;;;;;;9.62;68.76;101286.72;15651883;28;20128;-58
2022/05/04 02:13:59;;;;;;;1999.90;999.90;;;;;;;9.68;70.23;101304.97;15661124;28;20398;-59
2022/05/04 02:21:31;;;;;;;1999.90;999.90;;;;;;;9.70;69.62;101303.53;15678644;28;20452;-58
2022/05/04 02:29:04;;;;;;;1999.90;999.90;;;;;;;9.73;68.76;101308.47;15670192;28;20057;-57
2022/05/04 02:44:28;;;;;;;1999.90;999.90;;;;;;;10.00;69.14;101310.34;15735687;28;20041;-58
2022/05/04 02:52:00;;;;;;;1999.90;999.90;;;;;;;10.23;68.57;101311.25;15718298;28;20102;-59
2022/05/04 02:59:34;;;;;;;1999.90;999.90;;;;;;;10.33;69.16;101308.22;15771034;28;20048;-57
2022/05/04 03:07:06;;;;;;;;;;;;;;;10.59;68.42;101307.53;15720379;28;20132;-58
2022/05/04 03:14:40;;;;;;;1999.90;999.90;;;;;;;10.47;69.53;101310.09;15711508;28;19951;-60
2022/05/04 03:22:12;;;;;;;1999.90;999.90;;;;;;;10.64;69.74;101307.44;15738550;28;20072;-59
2022/05/04 03:29:46;;;;;;;1999.90;999.90;;;;;;;10.61;70.05;101306.06;15688714;28;20076;-59
2022/05/04 03:37:19;;;;;;;1999.90;999.90;;;;;;;10.85;69.75;101310.50;15643413;28;20494;-59
2022/05/04 03:44:52;;;;;;;1999.90;999.90;;;;;;;10.94;70.85;101317.78;15654638;28;20046;-59
2022/05/04 03:52:25;;;;;;;1999.90;999.90;;;;;;;11.15;70.55;101309.66;15665281;28;20490;-60
2022/05/04 03:59:58;;;;;;;237.38;217.20;;;;;;;11.26;70.38;101324.16;15655752;28;20053;-59
2022/05/04 04:07:30;;;;;;;274.92;251.35;;;;;;;11.27;71.58;101321.03;15631993;28;20624;-58
2022/05/04 04:15:05;;;;;;;283.38;259.88;;;;;;;11.53;72.03;101326.69;15661807;28;20132;-58
2022/05/04 04:22:37;;;;;;;325.63;297.50;;;;;;;11.84;71.20;101335.00;15621370;28;20047;-58
2022/05/04 04:30:12;;;;;;;191.70;169.68;;;;;;;11.66;70.67;101333.28;15674897;28;20048;-58
2022/05/04 04:37:45;;;;;;;238.07;215.20;;;;;;;12.03;70.00;101337.50;15721620;28;20041;-58
2022/05/04 04:45:19;;;;;;;237.40;215.00;;;;;;;12.21;70.11;101352.34;15722188;28;20240;-58
2022/05/04 04:52:51;;;;;;;300.65;274.00;;;;;;;12.39;70.11;101348.34;15705604;28;20068;-57
2022/05/04 05:00:25;;;;;;;308.50;280.63;;;;;;;12.73;69.70;101352.31;15677568;28;20052;-59
2022/05/04 05:07:57;;;;;;;292.13;264.85;;;;;;;13.02;68.89;101351.53;15723487;28;20043;-59
2022/05/04 05:23:23;;;;;;;1999.90;999.90;;;;;;;13.70;67.94;101368.44;15713527;28;20126;-58
2022/05/04 05:30:56;;;;;;;1999.90;999.90;;;;;;;13.81;66.86;101358.47;15705850;28;20048;-57
2022/05/04 05:38:31;;;;;;;1999.90;999.90;;;;;;;13.96;67.44;101371.09;15681792;28;20045;-58
2022/05/04 05:46:05;;;;;;;1999.90;999.90;;;;;;;14.11;67.84;101376.13;15690132;28;20054;-59
2022/05/04 05:53:40;;;;;;;1999.90;999.90;;;;;;;14.25;66.70;101378.66;15739034;28;20127;-59
2022/05/04 06:01:13;;;;;;;1999.90;999.90;;;;;;;14.50;66.34;101365.59;15739894;28;20044;-58
2022/05/04 06:08:46;;;;;;;;;;;;;;;14.42;66.92;101358.88;15741454;28;20459;-60
2022/05/04 06:16:19;;;;;;;1999.90;999.90;;;;;;;15.20;64.76;101374.94;15739621;28;19927;-61
2022/05/04 06:23:51;;;;;;;1999.90;999.90;;;;;;;15.22;64.53;101370.63;15721054;28;20105;-59
2022/05/04 06:39:16;;;;;;;1999.90;999.90;;;;;;;15.79;62.61;101388.63;15721445;28;20090;-61
2022/05/04 06:46:50;;;;;;;1999.90;999.90;;;;;;;16.13;62.67;101387.28;15740332;28;20047;-61
2022/05/04 06:54:22;;;;;;;;;;;;;;;16.42;60.07;101389.00;15749869;28;20041;-59
2022/05/04 07:01:55;;;;;;;1999.90;999.90;;;;;;;16.82;59.64;101388.19;15749545;28;20373;-60
2022/05/04 07:09:27;;;;;;;1999.90;999.90;;;;;;;16.64;59.02;101393.25;15732163;28;20048;-61
2022/05/04 07:17:01;;;;;;;1999.90;999.90;;;;;;;16.86;55.26;101387.09;15748618;28;20383;-61
2022/05/04 07:24:34;;;;;;;1999.90;999.90;;;;;;;17.54;55.02;101386.09;15748582;28;20044;-61
2022/05/04 07:32:08;;;;;;;1999.90;999.90;;;;;;;19.92;51.62;101389.47;15748678;28;20466;-61
2022/05/04 07:47:34;;;;;;;1999.90;999.90;;;;;;;22.01;42.61;101410.97;15746288;28;20068;-61
2022/05/04 07:55:08;;;;;;;1999.90;999.90;;;;;;;23.00;41.46;101407.06;15746059;28;20489;-62
2022/05/04 08:10:37;;;;;;;1999.90;999.90;;;;;;;23.31;41.06;101412.03;15727022;28;20048;-61
2022/05/04 08:18:11;;;;;;;1999.90;999.90;;;;;;;24.50;36.63;101407.16;15744521;28;20056;-59
2022/05/04 08:25:44;;;;;;;1999.90;999.90;;;;;;;23.81;37.98;101419.84;15745173;28;20114;-59
2022/05/04 08:33:18;;;;;;;;;;;;;;;25.15;35.18;101420.75;15743572;28;20076;-61
2022/05/04 08:40:52;;;;;;;1999.90;999.90;;;;;;;25.52;35.04;101416.44;15742201;28;19928;-61
2022/05/04 08:48:26;;;;;;;1999.90;999.90;;;;;;;26.38;32.34;101416.56;15724797;28;20135;-61
2022/05/04 08:55:59;;;;;;;1999.90;999.90;;;;;;;26.21;32.77;101408.94;15723528;28;20048;-61
2022/05/04 09:03:34;;;;;;;1999.90;999.90;;;;;;;27.48;31.91;101409.38;15741668;28;20041;-61
2022/05/04 09:11:15;;;;;;;1999.90;999.90;;;;;;;27.27;32.14;101404.78;15740983;28;20048;-61
2022/05/04 09:18:49;;;;;;;1999.90;999.90;;;;;;;27.01;31.54;101399.81;15741561;28;20067;-60
2022/05/04 09:26:23;;;;;;;1999.90;999.90;;;;;;;27.61;30.01;101392.38;15723260;28;20098;-60
2022/05/04 09:33:58;;;;;;;1999.90;999.90;;;;;;;28.29;29.11;101394.09;15734142;28;20052;-60
2022/05/04 09:49:30;;;;;;;1999.90;999.90;;;;;;;25.12;32.35;101401.63;15739309;28;20135;-60
2022/05/04 09:57:04;;;;;;;1999.90;999.90;;;;;;;25.21;32.74;101396.22;15722006;28;20059;-61
2022/05/04 10:04:39;;;;;;;1999.90;999.90;;;;;;;24.07;33.56;101399.50;15722224;28;20118;-61
2022/05/04 10:12:12;;;;;;;1999.90;999.90;;;;;;;23.82;35.50;101392.97;15740059;28;20421;-61
2022/05/04 10:19:51;;;;;;;1999.90;999.90;;;;;;;24.05;35.89;101389.69;15740322;28;20460;-61
2022/05/04 10:27:25;;;;;;;1999.90;999.90;;;;;;;23.12;36.32;101383.13;15733533;28;20110;-60
2022/05/04 10:35:32;;;;;;;1999.90;999.90;;;;;;;23.79;36.70;101380.38;15733297;28;20139;-61
2022/05/04 10:43:06;;;;;;;1999.90;999.90;;;;;;;24.52;36.50;101370.47;15700073;28;20319;-61
2022/05/04 10:50:50;;;;;;;1999.90;999.90;;;;;;;25.21;33.68;101364.00;15732093;28;20636;-61
2022/05/04 10:58:34;;;;;;;1999.90;999.90;;;;;;;25.45;33.27;101357.31;15731090;28;20037;-61
2022/05/04 11:06:11;;;;;;;1999.90;999.90;;;;;;;24.27;34.15;101356.25;15730545;28;20040;-61
2022/05/04 11:13:45;;;;;;;1999.90;999.90;;;;;;;23.72;38.82;101343.31;15748985;28;20047;-61
2022/05/04 11:21:20;;;;;;;1999.90;999.90;;;;;;;24.66;34.49;101348.38;15754577;28;20048;-62
2022/05/04 11:28:54;;;;;;;1999.90;999.90;;;;;;;25.65;32.69;101336.75;15747468;28;20041;-63
2022/05/04 11:36:28;;;;;;;1999.90;999.90;;;;;;;26.23;33.67;101329.22;15744989;28;20052;-61
2022/05/04 11:44:01;;;;;;;1999.90;999.90;;;;;;;24.42;33.77;101329.34;15743997;28;20101;-61
2022/05/04 11:51:36;;;;;;;1999.90;999.90;;;;;;;25.04;32.98;101325.78;15738181;28;20052;-61
2022/05/04 11:59:08;;;;;;;1999.90;999.90;;;;;;;24.81;33.53;101329.16;15813838;28;20071;-61
2022/05/04 12:06:43;;;;;;;1999.90;999.90;;;;;;;23.94;35.53;101312.75;15815992;28;20039;-59
2022/05/04 12:14:17;;;;;;;1999.90;999.90;;;;;;;23.91;35.86;101310.72;15816487;28;20037;-61
2022/05/04 12:21:52;;;;;;;1999.90;999.90;;;;;;;24.09;34.85;101296.44;15788502;28;20136;-60
2022/05/04 12:37:16;;;;;;;1999.90;999.90;;;;;;;25.74;33.84;101279.91;15812429;28;20066;-60
2022/05/04 12:44:54;;;;;;;1999.90;999.90;;;;;;;25.82;33.99;101264.31;15790669;28;20070;-60
2022/05/04 12:52:27;;;;;;;1999.90;999.90;;;;;;;24.43;34.04;101259.66;15713367;28;20106;-60
2022/05/04 13:00:00;;;;;;;1999.90;999.90;;;;;;;23.68;36.64;101251.34;15743337;28;20047;-61
2022/05/04 13:07:34;;;;;;;1999.90;999.90;;;;;;;24.60;37.72;101250.22;15741786;28;20049;-61
2022/05/04 13:15:06;;;;;;;1999.90;999.90;;;;;;;25.47;34.07;101240.56;15723450;28;20044;-61
2022/05/04 13:22:40;;;;;;;1999.90;999.90;;;;;;;25.11;35.00;101228.63;15741450;28;20036;-61
2022/05/04 13:30:12;;;;;;;1999.90;999.90;;;;;;;24.78;35.57;101221.53;15740792;28;20040;-61
2022/05/04 13:37:46;;;;;;;1999.90;999.90;;;;;;;25.45;31.92;101219.38;15722548;28;20048;-61
2022/05/04 13:45:18;;;;;;;1999.90;999.90;;;;;;;25.01;33.18;101215.22;15696470;28;20060;-60
2022/05/04 14:00:43;;;;;;;1999.90;999.90;;;;;;;25.94;32.78;101203.72;15732024;28;20044;-61
2022/05/04 14:08:17;;;;;;;1999.90;999.90;;;;;;;25.82;32.34;101195.72;15752739;28;20334;-61
2022/05/04 14:15:50;;;;;;;1999.90;999.90;;;;;;;25.12;32.82;101195.22;15734213;28;20045;-60
2022/05/04 14:23:24;;;;;;;1999.90;999.90;;;;;;;24.95;32.85;101189.19;15733731;28;20041;-60
2022/05/04 14:30:57;;;;;;;1999.90;999.90;;;;;;;24.68;33.28;101176.78;15750769;28;20053;-60
2022/05/04 14:38:31;;;;;;;1999.90;999.90;;;;;;;23.25;35.96;101171.66;15732446;28;20045;-60
2022/05/04 14:46:04;;;;;;;1999.90;999.90;;;;;;;23.16;35.81;101159.06;15749361;28;20037;-62
2022/05/04 14:53:38;;;;;;;1999.90;999.90;;;;;;;23.97;35.48;101149.50;15749797;28;20110;-62
2022/05/04 15:01:11;;;;;;;1999.90;999.90;;;;;;;23.88;35.08;101149.94;15750725;28;20119;-61
2022/05/04 15:08:44;;;;;;;1999.90;999.90;;;;;;;23.45;36.57;101151.28;15747791;28;20517;-59
2022/05/04 15:16:17;;;;;;;1999.90;999.90;;;;;;;23.53;35.24;101150.84;15729891;28;20044;-59
2022/05/04 15:23:52;;;;;;;1999.90;999.90;;;;;;;23.13;36.18;101162.72;15748117;28;20090;-60
2022/05/04 15:31:25;;;;;;;1999.90;999.90;;;;;;;22.68;37.72;101160.28;15715038;28;20048;-60
2022/05/04 15:38:58;;;;;;;1999.90;999.90;;;;;;;22.52;37.24;101159.06;15684081;28;20540;-60
2022/05/04 15:46:31;;;;;;;1999.90;999.90;;;;;;;22.46;39.24;101158.63;15683452;28;20387;-60
2022/05/04 15:54:05;;;;;;;1999.90;999.90;;;;;;;22.30;38.29;101143.97;15682171;28;20048;-60
2022/05/04 16:01:37;;;;;;;1999.90;999.90;;;;;;;22.50;38.33;101147.25;15682344;28;20053;-61
2022/05/04 16:09:11;;;;;;;1999.90;999.90;;;;;;;22.45;38.62;101135.06;15682783;28;20059;-62
2022/05/04 16:24:34;;;;;;;1999.90;999.90;;;;;;;21.93;40.35;101115.84;15679956;28;20079;-61
2022/05/04 16:32:07;;;;;;;1999.90;999.90;;;;;;;21.81;39.51;101117.03;15702367;28;20064;-61
2022/05/04 16:39:40;;;;;;;1999.90;999.90;;;;;;;22.03;40.46;101130.09;15743827;28;20509;-61
2022/05/04 16:47:13;;;;;;;1999.90;999.90;;;;;;;22.18;40.99;101125.25;15743329;28;20056;-62
2022/05/04 16:54:46;;;;;;;1999.90;999.90;;;;;;;22.02;40.33;101133.31;15741670;28;20037;-61
2022/05/04 17:02:19;;;;;;;1999.90;999.90;;;;;;;21.77;39.74;101119.03;15740562;28;20119;-61
2022/05/04 17:09:52;;;;;;;1999.90;999.90;;;;;;;21.70;40.36;101113.34;15707868;28;20124;-61
2022/05/04 17:17:25;;;;;;;1999.90;999.90;;;;;;;21.77;41.32;101119.84;15741864;28;20032;-60
2022/05/04 17:24:59;;;;;;;1999.90;999.90;;;;;;;21.33;40.74;101120.03;15736324;28;20036;-60
2022/05/04 17:40:22;;;;;;;1999.90;999.90;;;;;;;21.44;43.06;101132.25;15722850;28;20062;-61
2022/05/04 17:47:55;;;;;;;1999.90;999.90;;;;;;;21.35;42.87;101125.31;15740516;28;20048;-61
2022/05/04 17:55:29;;;;;;;;;;;;;;;21.27;41.85;101130.16;15722132;28;20048;-61
2022/05/04 18:10:53;;;;;;;1999.90;999.90;;;;;;;20.85;42.59;101124.97;15728504;28;20040;-62
2022/05/04 18:18:25;;;;;;;1999.90;999.90;;;;;;;20.88;42.13;101127.00;15681776;28;20099;-58
2022/05/04 18:25:59;;;;;;;1999.90;999.90;;;;;;;20.74;42.87;101134.22;15715600;28;20392;-60
2022/05/04 18:33:31;;;;;;;1999.90;999.90;;;;;;;20.78;43.46;101133.41;15725599;28;20552;-61
2022/05/04 18:41:05;;;;;;;1999.90;999.90;;;;;;;20.62;45.67;101128.81;15726167;28;20036;-60
2022/05/04 18:48:38;;;;;;;1999.90;999.90;;;;;;;20.47;45.29;101141.25;15706849;28;20123;-61
2022/05/04 18:56:11;;;;;;;1999.90;999.90;;;;;;;20.30;47.18;101148.31;15742857;28;20080;-60
2022/05/04 19:03:44;;;;;;;1999.90;999.90;;;;;;;20.17;47.56;101152.66;15738299;28;20109;-61
2022/05/04 19:11:17;;;;;;;1999.90;999.90;;;;;;;19.98;46.88;101147.16;15715956;28;20098;-60
2022/05/04 19:18:50;;;;;;;1999.90;999.90;;;;;;;19.68;47.42;101144.38;15721005;28;20028;-63
2022/05/04 19:26:23;;;;;;;1999.90;999.90;;;;;;;19.56;48.23;101148.25;15718628;28;20044;-64
2022/05/04 19:33:56;;;;;;;1999.90;999.90;;;;;;;19.41;49.17;101149.25;15705988;28;20044;-62
2022/05/04 19:41:30;;;;;;;1999.90;999.90;;;;;;;19.21;49.21;101155.03;15749053;28;20401;-64
2022/05/04 19:49:02;;;;;;;1999.90;999.90;;;;;;;19.13;49.46;101169.44;15726880;28;20483;-62
2022/05/04 19:56:36;;;;;;;1999.90;999.90;;;;;;;18.99;49.22;101164.38;15731040;28;20123;-60
2022/05/04 20:04:08;;;;;;;1999.90;999.90;;;;;;;18.78;49.81;101166.88;15733449;28;20112;-60
2022/05/04 20:11:42;;;;;;;1999.90;999.90;;;;;;;18.71;49.90;101164.72;15696288;28;20095;-58
2022/05/04 20:19:17;;;;;;;1999.90;999.90;;;;;;;18.56;50.95;101163.63;15698984;28;20098;-62
2022/05/04 20:26:50;;;;;;;1999.90;999.90;;;;;;;18.45;50.76;101162.63;15706154;28;20094;-61
2022/05/04 20:34:23;;;;;;;1999.90;999.90;;;;;;;18.43;50.73;101167.81;15700791;28;20403;-59
2022/05/04 20:41:56;;;;;;;1999.90;999.90;;;;;;;18.47;51.05;101163.06;15733489;28;20041;-61
2022/05/04 20:49:29;;;;;;;1999.90;999.90;;;;;;;18.37;50.54;101160.84;15749594;28;20412;-62
2022/05/04 20:57:03;;;;;;;1999.90;999.90;;;;;;;18.40;50.74;101168.56;15692253;28;20052;-61
2022/05/04 21:04:37;;;;;;;1999.90;999.90;;;;;;;18.44;50.87;101172.28;15675397;28;20048;-62
2022/05/04 21:12:12;;;;;;;1999.90;999.90;;;;;;;18.52;51.46;101173.22;15696600;28;20132;-62
2022/05/04 21:19:44;;;;;;;1999.90;999.90;;;;;;;18.39;51.80;101176.22;15712755;28;20068;-61
2022/05/04 21:27:18;;;;;;;1999.90;999.90;;;;;;;18.22;51.71;101176.69;15702280;28;20080;-62
2022/05/04 21:34:50;;;;;;;1999.90;999.90;;;;;;;17.88;52.32;101162.31;15669746;28;20037;-60
2022/05/04 21:42:24;;;;;;;1999.90;999.90;;;;;;;17.87;52.76;101177.63;15715440;28;20040;-60
2022/05/04 21:49:56;;;;;;;1999.90;999.90;;;;;;;17.73;53.22;101185.81;15707168;28;20037;-60
2022/05/04 21:57:30;;;;;;;1999.90;999.90;;;;;;;17.68;53.19;101191.69;15703438;28;20678;-59
2022/05/04 22:05:03;;;;;;;1999.90;999.90;;;;;;;17.69;53.98;101193.38;15742650;22;20059;-60
2022/05/04 22:20:27;;;;;;;1999.90;999.90;;;;;;;17.88;54.16;101199.03;15689769;28;19920;-60
2022/05/04 22:28:03;;;;;;;1999.90;999.90;;;;;;;17.82;55.58;101208.16;15716634;28;20044;-60
2022/05/04 22:35:35;;;;;;;1999.90;999.90;;;;;;;17.46;58.74;101204.53;15712663;28;20045;-60
2022/05/04 22:43:09;;;;;;;1999.90;999.90;;;;;;;17.24;58.76;101203.22;15716418;28;20103;-61
2022/05/04 22:50:43;;;;;;;1999.90;999.90;;;;;;;16.92;60.80;101208.06;15714005;28;20041;-60
2022/05/04 22:58:19;;;;;;;1999.90;999.90;;;;;;;16.66;60.53;101193.66;15698269;28;20405;-62
2022/05/04 23:05:52;;;;;;;1999.90;999.90;;;;;;;16.77;60.05;101205.25;15703279;28;20116;-60
2022/05/04 23:13:26;;;;;;;1999.90;999.90;;;;;;;17.13;59.45;101192.88;15697289;28;20131;-60
2022/05/04 23:20:59;;;;;;;1999.90;999.90;;;;;;;17.13;57.87;101192.88;15702052;28;20445;-60
2022/05/04 23:28:32;;;;;;;1999.90;999.90;;;;;;;17.28;57.32;101186.38;15708932;28;20106;-61
2022/05/04 23:43:57;;;;;;;1999.90;999.90;;;;;;;16.91;57.14;101177.44;15683973;28;20063;-60
2022/05/04 23:51:29;;;;;;;1999.90;999.90;;;;;;;17.19;56.93;101174.47;15727422;28;20045;-59
2022/05/04 23:59:03;;;;;;;1999.90;999.90;;;;;;;17.28;57.49;101173.06;15728159;28;20041;-60
